createdAt,value
2018-12-26T00:00:54.111Z,79.26
2018-12-26T00:03:48.120Z,79.67
2018-12-26T00:06:38.676Z,79.99
2018-12-26T00:09:15.267Z,80.67
2018-12-26T00:15:45.944Z,80.49
2018-12-26T00:18:42.526Z,80.93
2018-12-26T00:21:27.786Z,80.86
2018-12-26T00:23:58.202Z,80.86
2018-12-26T00:26:26.067Z,81.11
2018-12-26T00:28:54.136Z,80.80
2018-12-26T00:31:21.947Z,80.38
2018-12-26T00:33:49.471Z,80.41
2018-12-26T00:36:17.321Z,80.32
2018-12-26T00:38:45.022Z,80.28
2018-12-26T00:41:12.639Z,80.36
2018-12-26T00:43:40.580Z,80.08
2018-12-26T00:46:08.795Z,79.93
2018-12-26T00:48:36.751Z,79.66
2018-12-26T00:51:05.076Z,79.47
2018-12-26T00:53:35.301Z,79.49
2018-12-26T00:56:14.591Z,79.50
2018-12-26T00:58:39.186Z,79.32
2018-12-26T01:01:12.461Z,79.09
2018-12-26T01:03:48.168Z,79.27
2018-12-26T01:06:21.617Z,78.95
2018-12-26T01:08:56.658Z,79.16
2018-12-26T01:11:24.621Z,79.24
2018-12-26T01:13:54.007Z,79.08
2018-12-26T01:16:22.250Z,79.19
2018-12-26T01:18:49.736Z,79.35
2018-12-26T01:21:17.277Z,79.08
2018-12-26T01:23:52.268Z,79.13
2018-12-26T01:26:19.788Z,78.54
2018-12-26T01:28:47.757Z,78.41
2018-12-26T01:31:15.231Z,78.16
2018-12-26T01:33:49.372Z,78.25
2018-12-26T01:36:16.911Z,77.89
2018-12-26T01:38:44.561Z,77.82
2018-12-26T01:41:12.257Z,77.68
2018-12-26T01:43:39.849Z,77.72
2018-12-26T01:46:07.972Z,77.45
2018-12-26T01:48:35.821Z,77.32
2018-12-26T01:51:03.685Z,77.57
2018-12-26T01:53:35.870Z,77.58
2018-12-26T01:56:06.232Z,77.20
2018-12-26T01:58:33.832Z,77.44
2018-12-26T02:01:03.361Z,77.22
2018-12-26T02:03:30.958Z,77.35
2018-12-26T02:06:55.607Z,77.16
2018-12-26T02:09:23.226Z,77.31
2018-12-26T02:11:50.806Z,77.15
2018-12-26T02:14:18.342Z,77.49
2018-12-26T02:16:45.956Z,77.56
2018-12-26T02:19:13.636Z,77.42
2018-12-26T02:21:41.286Z,77.58
2018-12-26T02:25:02.507Z,77.54
2018-12-26T02:27:30.044Z,77.75
2018-12-26T02:29:57.580Z,78.16
2018-12-26T02:32:25.149Z,77.60
2018-12-26T02:35:18.788Z,77.34
2018-12-26T02:37:46.484Z,77.31
2018-12-26T02:40:48.640Z,77.64
2018-12-26T02:43:21.784Z,77.48
2018-12-26T02:46:09.347Z,77.37
2018-12-26T02:48:37.037Z,77.62
2018-12-26T02:51:07.602Z,77.56
2018-12-26T02:53:35.052Z,77.85
2018-12-26T02:56:02.567Z,77.96
2018-12-26T02:58:30.229Z,77.80
2018-12-26T03:00:57.707Z,78.51
2018-12-26T03:03:25.263Z,78.62
2018-12-26T03:05:52.706Z,78.61
2018-12-26T03:08:20.281Z,78.02
2018-12-26T03:10:47.981Z,78.77
2018-12-26T03:13:15.662Z,78.34
2018-12-26T03:15:43.148Z,78.72
2018-12-26T03:18:10.652Z,78.80
2018-12-26T03:20:38.142Z,78.29
2018-12-26T03:23:05.787Z,78.62
2018-12-26T03:25:33.518Z,78.77
2018-12-26T03:28:01.372Z,79.14
2018-12-26T03:30:28.849Z,79.06
2018-12-26T03:32:56.432Z,79.05
2018-12-26T03:35:24.058Z,79.71
2018-12-26T03:37:51.532Z,79.76
2018-12-26T03:40:19.181Z,79.61
2018-12-26T03:42:47.126Z,79.80
2018-12-26T03:45:15.118Z,80.37
2018-12-26T03:47:43.691Z,80.43
2018-12-26T03:50:11.285Z,80.26
2018-12-26T03:52:38.882Z,80.56
2018-12-26T03:55:06.467Z,80.42
2018-12-26T03:57:33.960Z,80.28
2018-12-26T04:00:01.546Z,80.33
2018-12-26T04:02:29.042Z,80.24
2018-12-26T04:04:56.932Z,80.01
2018-12-26T04:07:24.527Z,80.34
2018-12-26T04:09:52.093Z,80.58
2018-12-26T04:12:19.765Z,80.56
2018-12-26T04:14:47.348Z,80.89
2018-12-26T04:17:14.994Z,81.14
2018-12-26T04:19:42.877Z,81.36
2018-12-26T04:22:10.461Z,81.03
2018-12-26T04:24:38.148Z,80.53
2018-12-26T04:27:15.270Z,80.54
2018-12-26T04:29:35.122Z,80.71
2018-12-26T04:32:02.740Z,80.66
2018-12-26T04:34:30.234Z,80.70
2018-12-26T04:36:57.758Z,80.50
2018-12-26T04:39:25.791Z,80.80
2018-12-26T04:41:53.249Z,80.66
2018-12-26T04:44:20.862Z,80.58
2018-12-26T04:46:48.356Z,80.28
2018-12-26T04:49:15.831Z,80.45
2018-12-26T04:51:43.318Z,80.29
2018-12-26T04:54:11.123Z,80.30
2018-12-26T04:56:38.652Z,80.29
2018-12-26T04:59:06.337Z,80.36
2018-12-26T05:01:33.933Z,80.42
2018-12-26T05:04:01.468Z,80.52
2018-12-26T05:06:28.969Z,80.80
2018-12-26T05:08:56.562Z,80.99
2018-12-26T05:11:24.334Z,80.86
2018-12-26T05:13:51.936Z,80.98
2018-12-26T05:16:19.900Z,80.99
2018-12-26T05:18:47.527Z,80.85
2018-12-26T05:21:15.211Z,81.11
2018-12-26T05:23:42.905Z,80.86
2018-12-26T05:26:10.603Z,81.11
2018-12-26T05:28:38.224Z,80.95
2018-12-26T05:31:05.822Z,81.15
2018-12-26T05:33:33.346Z,81.66
2018-12-26T05:36:00.856Z,81.64
2018-12-26T05:38:28.672Z,81.57
2018-12-26T05:40:56.164Z,81.56
2018-12-26T05:43:23.786Z,81.95
2018-12-26T05:45:51.352Z,82.39
2018-12-26T05:48:18.902Z,82.69
2018-12-26T05:50:46.407Z,82.97
2018-12-26T05:53:13.881Z,83.38
2018-12-26T05:55:53.062Z,83.94
2018-12-26T05:58:21.368Z,84.64
2018-12-26T06:00:49.052Z,85.50
2018-12-26T06:03:16.622Z,86.46
2018-12-26T06:05:44.221Z,87.00
2018-12-26T06:08:11.882Z,87.24
2018-12-26T06:10:39.562Z,87.59
2018-12-26T06:13:07.231Z,87.74
2018-12-26T06:15:34.786Z,87.55
2018-12-26T06:18:02.305Z,87.23
2018-12-26T06:20:31.431Z,87.35
2018-12-26T06:22:58.947Z,87.16
2018-12-26T06:25:26.586Z,87.52
2018-12-26T06:27:54.091Z,87.91
2018-12-26T06:30:21.687Z,88.32
2018-12-26T06:32:49.296Z,88.23
2018-12-26T06:35:16.870Z,88.22
2018-12-26T06:37:44.446Z,88.53
2018-12-26T06:40:13.061Z,88.46
2018-12-26T06:42:40.668Z,88.84
2018-12-26T06:45:08.531Z,89.16
2018-12-26T06:47:36.067Z,89.01
2018-12-26T06:50:04.867Z,89.17
2018-12-26T06:52:32.346Z,89.54
2018-12-26T06:54:59.892Z,89.51
2018-12-26T06:57:27.331Z,89.84
2018-12-26T06:59:54.925Z,89.83
2018-12-26T07:02:22.446Z,89.88
2018-12-26T07:04:49.935Z,89.87
2018-12-26T07:07:17.496Z,90.01
2018-12-26T07:09:45.011Z,90.14
2018-12-26T07:12:12.622Z,90.49
2018-12-26T07:14:40.176Z,90.57
2018-12-26T07:17:09.000Z,90.45
2018-12-26T07:19:36.951Z,90.46
2018-12-26T07:22:05.917Z,90.50
2018-12-26T07:24:33.576Z,90.64
2018-12-26T07:27:01.688Z,90.23
2018-12-26T07:29:29.617Z,90.08
2018-12-26T07:31:57.189Z,90.25
2018-12-26T07:34:24.878Z,90.34
2018-12-26T07:36:52.647Z,90.41
2018-12-26T07:39:20.467Z,90.36
2018-12-26T07:41:48.266Z,90.29
2018-12-26T07:44:15.922Z,90.54
2018-12-26T07:46:43.471Z,90.71
2018-12-26T07:49:11.041Z,90.91
2018-12-26T07:51:38.728Z,90.77
2018-12-26T07:54:06.585Z,90.53
2018-12-26T07:56:34.622Z,90.24
2018-12-26T07:59:02.351Z,90.40
2018-12-26T08:01:30.112Z,90.38
2018-12-26T08:03:57.646Z,90.38
2018-12-26T08:06:25.282Z,90.13
2018-12-26T08:08:54.000Z,90.15
2018-12-26T08:11:21.507Z,90.17
2018-12-26T08:13:48.992Z,90.09
2018-12-26T08:16:16.586Z,89.96
2018-12-26T08:18:44.382Z,90.04
2018-12-26T08:21:12.042Z,89.84
2018-12-26T08:23:41.277Z,90.23
2018-12-26T08:26:08.905Z,89.96
2018-12-26T08:28:36.529Z,89.82
2018-12-26T08:34:33.581Z,89.92
2018-12-26T08:37:04.115Z,90.25
2018-12-26T08:43:33.157Z,89.85
2018-12-26T08:46:01.027Z,90.03
2018-12-26T08:48:28.647Z,90.11
2018-12-26T08:50:56.251Z,90.07
2018-12-26T08:53:28.466Z,90.34
2018-12-26T09:01:52.137Z,90.48
2018-12-26T09:04:23.530Z,90.14
2018-12-26T09:21:55.238Z,89.91
2018-12-26T09:24:25.916Z,90.15
2018-12-26T09:26:54.993Z,90.46
2018-12-26T09:29:37.536Z,90.59
2018-12-26T09:32:54.264Z,90.23
2018-12-26T09:35:22.133Z,89.70
2018-12-26T09:39:29.351Z,89.80
2018-12-26T09:41:30.079Z,90.05
2018-12-26T09:44:01.119Z,89.92
2018-12-26T09:50:10.310Z,89.40
2018-12-26T09:53:14.484Z,89.70
2018-12-26T09:55:54.254Z,89.66
2018-12-26T09:58:34.435Z,90.09
2018-12-26T10:19:43.800Z,91.17
2018-12-26T10:22:59.949Z,90.96
2018-12-26T10:36:54.785Z,90.50
2018-12-26T10:40:31.757Z,90.65
2018-12-26T10:46:47.507Z,91.24
2018-12-26T10:49:41.079Z,91.62
2018-12-26T10:52:10.551Z,91.99
2018-12-26T10:57:41.594Z,92.01
2018-12-26T11:00:18.979Z,92.12
2018-12-26T11:20:58.948Z,91.96
2018-12-26T11:28:13.652Z,92.07
2018-12-26T11:34:35.468Z,91.65
2018-12-26T11:37:02.891Z,91.58
2018-12-26T11:39:30.418Z,91.56
2018-12-26T11:41:57.884Z,91.57
2018-12-26T11:44:25.915Z,91.66
2018-12-26T11:46:56.970Z,91.49
2018-12-26T11:49:25.811Z,91.64
2018-12-26T11:51:53.246Z,91.78
2018-12-26T11:54:20.731Z,92.16
2018-12-26T11:56:48.140Z,91.90
2018-12-26T11:59:15.591Z,91.82
2018-12-26T12:01:43.096Z,91.76
2018-12-26T12:04:10.556Z,91.81
2018-12-26T12:06:37.961Z,91.88
2018-12-26T12:12:46.370Z,91.50
2018-12-26T12:15:16.460Z,91.46
2018-12-26T12:18:50.990Z,91.27
2018-12-26T12:21:18.941Z,91.16
2018-12-26T12:23:46.931Z,91.33
2018-12-26T12:26:20.405Z,91.55
2018-12-26T12:28:47.956Z,91.84
2018-12-26T12:39:15.647Z,92.24
2018-12-26T12:41:43.151Z,91.89
2018-12-26T12:44:10.606Z,91.88
2018-12-26T12:46:38.191Z,91.93
2018-12-26T12:49:05.667Z,91.82
2018-12-26T12:51:33.142Z,91.98
2018-12-26T12:54:00.547Z,91.93
2018-12-26T12:56:28.022Z,91.95
2018-12-26T12:58:55.426Z,92.13
2018-12-26T13:01:22.950Z,92.11
2018-12-26T13:03:50.440Z,92.20
2018-12-26T13:06:17.946Z,91.97
2018-12-26T13:08:45.390Z,91.76
2018-12-26T13:11:12.960Z,91.59
2018-12-26T13:13:40.645Z,91.73
2018-12-26T13:16:08.609Z,91.75
2018-12-26T13:18:36.329Z,91.92
2018-12-26T13:21:07.480Z,91.96
2018-12-26T13:23:34.946Z,91.82
2018-12-26T13:26:02.484Z,91.54
2018-12-26T13:28:29.916Z,91.50
2018-12-26T13:31:05.075Z,91.59
2018-12-26T13:33:30.136Z,91.52
2018-12-26T13:35:57.615Z,91.26
2018-12-26T13:38:25.036Z,91.44
2018-12-26T13:40:54.588Z,91.57
2018-12-26T13:43:22.155Z,91.57
2018-12-26T13:45:50.540Z,91.37
2018-12-26T13:49:27.598Z,91.47
2018-12-26T13:52:12.709Z,91.58
2018-12-26T13:55:24.876Z,91.95
2018-12-26T13:57:52.885Z,91.76
2018-12-26T14:00:23.476Z,91.90
2018-12-26T14:02:58.405Z,92.11
2018-12-26T14:05:34.551Z,92.35
2018-12-26T14:08:07.549Z,92.34
2018-12-26T14:10:36.004Z,92.25
2018-12-26T14:13:03.711Z,92.32
2018-12-26T14:15:31.767Z,92.37
2018-12-26T14:18:00.698Z,92.58
2018-12-26T14:20:40.406Z,92.43
2018-12-26T14:23:08.685Z,92.20
2018-12-26T14:25:40.025Z,91.94
2018-12-26T14:28:43.147Z,91.93
2018-12-26T14:31:11.255Z,92.06
2018-12-26T14:33:43.344Z,92.36
2018-12-26T14:36:11.284Z,92.07
2018-12-26T14:38:48.226Z,92.52
2018-12-26T14:41:16.225Z,92.59
2018-12-26T14:43:43.966Z,92.71
2018-12-26T14:46:11.731Z,92.40
2018-12-26T14:48:39.690Z,92.44
2018-12-26T14:54:46.563Z,92.75
2018-12-26T15:00:39.859Z,92.57
2018-12-26T15:03:12.019Z,92.95
2018-12-26T15:05:39.954Z,93.30
2018-12-26T15:08:28.699Z,93.45
2018-12-26T15:11:13.442Z,93.79
2018-12-26T15:14:59.742Z,93.66
2018-12-26T15:17:32.598Z,93.79
2018-12-26T15:20:03.990Z,93.72
2018-12-26T15:23:19.024Z,93.51
2018-12-26T15:25:47.974Z,93.18
2018-12-26T15:29:17.275Z,93.33
2018-12-26T15:31:47.745Z,93.38
2018-12-26T15:34:15.669Z,93.83
2018-12-26T15:36:43.519Z,93.62
2018-12-26T15:39:11.560Z,93.46
2018-12-26T15:41:39.280Z,93.30
2018-12-26T15:44:07.105Z,93.09
2018-12-26T15:46:35.118Z,92.81
2018-12-26T15:49:04.559Z,92.50
2018-12-26T15:51:50.264Z,92.18
2018-12-26T15:54:18.843Z,92.27
2018-12-26T16:01:16.769Z,92.11
2018-12-26T16:03:28.409Z,92.52
2018-12-26T16:09:44.734Z,92.84
2018-12-26T16:12:10.849Z,92.98
2018-12-26T16:14:36.411Z,93.16
2018-12-26T16:17:04.505Z,93.07
2018-12-26T16:19:32.181Z,93.07
2018-12-26T16:21:59.794Z,93.10
2018-12-26T16:24:29.724Z,92.90
2018-12-26T16:27:02.935Z,92.79
2018-12-26T16:29:30.820Z,92.83
2018-12-26T16:31:58.625Z,92.60
2018-12-26T16:34:26.321Z,92.72
2018-12-26T16:36:53.741Z,93.07
2018-12-26T16:39:21.551Z,92.90
2018-12-26T16:41:49.004Z,93.19
2018-12-26T16:44:16.510Z,93.43
2018-12-26T16:46:44.804Z,93.25
2018-12-26T16:49:12.696Z,93.07
2018-12-26T16:51:40.422Z,93.07
2018-12-26T16:54:07.810Z,93.35
2018-12-26T16:56:35.541Z,93.32
2018-12-26T16:59:02.917Z,93.55
2018-12-26T17:01:30.465Z,93.47
2018-12-26T17:03:57.970Z,93.69
2018-12-26T17:06:25.545Z,93.75
2018-12-26T17:08:53.080Z,93.48
2018-12-26T17:11:20.571Z,92.83
2018-12-26T17:13:48.039Z,92.70
2018-12-26T17:16:15.716Z,92.86
2018-12-26T17:18:43.732Z,92.92
2018-12-26T17:21:11.496Z,93.00
2018-12-26T17:23:41.225Z,92.85
2018-12-26T17:26:09.159Z,92.52
2018-12-26T17:28:37.626Z,92.38
2018-12-26T17:31:06.861Z,92.56
2018-12-26T17:33:34.926Z,92.37
2018-12-26T17:36:02.777Z,92.39
2018-12-26T17:38:31.776Z,92.47
2018-12-26T17:40:59.920Z,92.49
2018-12-26T17:43:27.584Z,92.30
2018-12-26T17:45:58.325Z,92.37
2018-12-26T17:48:26.075Z,92.34
2018-12-26T17:50:54.099Z,92.03
2018-12-26T17:53:45.480Z,91.94
2018-12-26T17:56:24.720Z,91.59
2018-12-26T17:58:58.580Z,91.80
2018-12-26T18:01:35.124Z,91.72
2018-12-26T18:04:03.390Z,91.66
2018-12-26T18:06:31.121Z,91.69
2018-12-26T18:08:58.799Z,91.60
2018-12-26T18:11:26.440Z,91.57
2018-12-26T18:13:54.330Z,91.30
2018-12-26T18:16:22.071Z,91.33
2018-12-26T18:18:49.736Z,91.39
2018-12-26T18:21:17.510Z,91.49
2018-12-26T18:23:45.149Z,91.80
2018-12-26T18:26:13.156Z,92.13
2018-12-26T18:28:40.766Z,91.82
2018-12-26T18:31:09.050Z,91.78
2018-12-26T18:33:36.970Z,91.75
2018-12-26T18:36:04.873Z,91.71
2018-12-26T18:38:32.770Z,91.45
2018-12-26T18:41:00.576Z,91.68
2018-12-26T18:43:28.474Z,91.58
2018-12-26T18:45:56.198Z,91.26
2018-12-26T18:48:23.881Z,91.27
2018-12-26T18:50:52.121Z,91.44
2018-12-26T18:53:19.903Z,91.61
2018-12-26T18:55:47.630Z,91.55
2018-12-26T18:58:16.701Z,91.85
2018-12-26T19:00:44.506Z,91.88
2018-12-26T19:03:12.565Z,91.92
2018-12-26T19:05:40.606Z,91.97
2018-12-26T19:08:09.552Z,91.67
2018-12-26T19:10:37.729Z,91.21
2018-12-26T19:13:05.641Z,90.95
2018-12-26T19:15:33.938Z,90.94
2018-12-26T19:21:03.325Z,90.94
2018-12-26T19:23:32.773Z,91.30
2018-12-26T19:26:02.731Z,91.47
2018-12-26T19:28:40.755Z,91.57
2018-12-26T19:31:08.806Z,92.38
2018-12-26T19:33:38.464Z,92.41
2018-12-26T19:36:07.008Z,92.44
2018-12-26T19:38:35.357Z,92.62
2018-12-26T19:41:04.429Z,92.16
2018-12-26T19:43:37.926Z,92.21
2018-12-26T19:46:06.648Z,92.04
2018-12-26T19:48:35.432Z,91.87
2018-12-26T19:51:03.551Z,91.61
2018-12-26T19:53:32.276Z,91.55
2018-12-26T19:56:00.291Z,91.93
2018-12-26T19:58:29.318Z,91.48
2018-12-26T20:01:00.815Z,91.47
2018-12-26T20:03:29.223Z,91.31
2018-12-26T20:05:58.277Z,91.21
2018-12-26T20:08:26.247Z,91.33
2018-12-26T20:10:54.175Z,91.49
2018-12-26T20:13:23.937Z,91.75
2018-12-26T20:15:52.091Z,91.94
2018-12-26T20:18:20.151Z,92.12
2018-12-26T20:20:48.246Z,91.98
2018-12-26T20:23:16.880Z,91.35
2018-12-26T20:25:45.900Z,90.95
2018-12-26T20:28:14.020Z,90.77
2018-12-26T20:30:42.271Z,90.72
2018-12-26T20:33:28.325Z,90.71
2018-12-26T20:35:56.576Z,90.90
2018-12-26T20:38:24.771Z,90.71
2018-12-26T20:40:53.111Z,90.36
2018-12-26T20:43:21.282Z,90.23
2018-12-26T20:45:49.568Z,90.01
2018-12-26T20:48:17.820Z,89.09
2018-12-26T20:50:45.981Z,89.27
2018-12-26T20:53:14.575Z,88.76
2018-12-26T21:19:03.849Z,87.91
2018-12-26T23:45:12.279Z,85.15
2018-12-26T23:47:40.011Z,85.39
2018-12-26T23:50:13.143Z,85.79
2018-12-26T23:52:41.165Z,86.47
2018-12-26T23:55:08.786Z,86.03
2018-12-26T23:57:37.649Z,86.06
